Date,TemperatureHighF,TemperatureAvgF,TemperatureLowF,DewpointHighF,DewpointAvgF,DewpointLowF,HumidityHigh,HumidityAvg,HumidityLow,PressureMaxIn,PressureMinIn,WindSpeedMaxMPH,WindSpeedAvgMPH,GustSpeedMaxMPH,PrecipitationSumIn
2013-1-1,78.0,62.4,49.7,63.8,56.9,48.6,97,84,59,30.10,29.92,10,2,20,0.00
2013-1-2,80.2,65.6,52.2,69.6,61.5,51.1,97,88,65,29.96,29.87,7,2,12,0.00
2013-1-3,76.2,65.3,57.3,70.4,63.0,55.9,97,93,72,30.05,29.91,8,2,14,0.09
2013-1-4,62.1,57.9,54.6,59.3,56.4,53.4,96,95,90,30.16,30.02,7,4,13,0.02
2013-1-5,75.7,64.3,55.3,65.7,59.0,52.1,94,84,68,30.18,30.06,8,3,13,0.00
2013-1-6,79.3,68.9,62.0,72.0,65.7,60.3,97,90,74,30.09,29.94,6,2,12,0.00
2013-1-7,66.8,62.1,58.8,65.3,59.6,54.1,96,92,79,30.10,29.99,9,5,16,0.17
2013-1-8,81.8,70.2,60.6,72.4,65.9,59.5,97,87,66,30.11,30.00,7,3,13,0.00
2013-1-9,84.0,74.8,69.0,73.3,69.6,67.4,96,85,63,30.17,30.06,10,4,18,0.00
2013-1-10,82.8,73.5,66.6,70.5,67.4,63.8,96,82,57,30.18,30.08,10,5,15,0.00
2013-1-11,82.6,71.0,62.0,71.8,66.4,60.8,98,87,63,30.15,30.02,9,3,19,0.00
2013-1-12,82.3,70.6,59.8,70.2,64.9,58.9,97,84,62,30.07,29.96,10,3,15,0.00
2013-1-13,82.3,70.5,60.1,70.3,65.1,59.0,97,84,59,30.04,29.94,8,2,13,0.00
2013-1-14,80.8,68.1,58.6,68.8,63.0,57.8,98,85,60,30.08,29.99,8,2,14,0.01
2013-1-15,82.1,68.4,56.3,70.5,63.3,55.2,98,85,59,30.03,29.93,8,2,13,0.00
2013-1-16,84.0,69.4,59.3,68.0,62.9,57.9,97,82,52,29.99,29.88,7,1,11,0.00
2013-1-17,74.2,61.0,53.2,70.4,57.6,45.6,98,89,72,30.02,29.89,10,4,20,0.01
2013-1-18,63.3,52.3,39.3,58.4,47.0,34.9,95,82,71,30.19,30.02,10,6,18,0.02
2013-1-19,74.9,63.6,53.2,62.8,57.3,49.1,91,81,65,30.16,30.01,9,5,17,0.00
2013-1-20,75.9,64.8,58.4,66.1,60.5,57.0,96,86,70,30.06,29.92,6,3,10,0.00
2013-1-21,76.5,65.4,59.3,68.3,59.7,54.1,91,82,67,29.99,29.88,6,2,11,0.00
2013-1-22,66.5,56.9,44.9,54.1,44.5,35.8,88,66,35,30.17,29.95,9,4,15,0.00
2013-1-23,69.7,53.5,41.2,43.5,39.2,36.0,86,63,31,30.26,30.15,7,2,11,0.00
2013-1-24,73.6,54.8,39.3,52.7,46.0,37.2,95,76,44,30.23,30.12,7,2,11,0.00
2013-1-25,76.3,58.4,45.2,59.7,49.8,44.1,97,77,40,30.21,30.06,7,1,13,0.00
2013-1-26,75.3,58.9,43.2,58.7,52.1,41.9,96,80,53,30.17,30.05,6,1,11,0.00
2013-1-27,78.8,62.4,47.2,62.6,54.8,46.1,97,79,48,30.20,30.10,7,2,13,0.01
2013-1-28,79.1,68.4,58.7,68.3,63.7,56.6,97,86,68,30.22,30.09,10,3,15,0.00
2013-1-29,83.6,71.5,61.4,70.3,66.3,60.2,97,85,59,30.13,29.97,11,4,16,0.00
2013-1-30,84.0,72.2,63.9,69.4,65.9,62.4,95,82,57,29.99,29.80,15,8,25,0.00
2013-1-31,69.5,56.8,41.2,67.1,45.4,29.3,97,70,31,30.13,29.80,10,4,18,0.08
2013-2-1,68.3,51.7,38.2,41.4,35.0,27.3,88,59,22,30.25,30.11,9,3,15,0.00
2013-2-2,73.6,55.4,38.9,49.0,42.6,36.0,91,66,33,30.20,30.03,7,2,10,0.00
2013-2-3,71.8,54.8,39.8,53.6,45.6,36.8,94,73,48,30.09,29.96,9,2,17,0.00
2013-2-4,72.4,53.2,36.9,52.2,40.8,35.6,96,69,31,30.04,29.92,6,1,14,0.00
2013-2-5,78.8,57.9,38.3,56.2,47.8,36.2,93,73,43,29.99,29.88,5,1,10,0.00
2013-2-6,79.5,66.9,53.9,64.5,58.5,51.3,93,76,53,30.00,29.91,6,2,10,0.00
2013-2-7,83.3,70.4,58.3,67.8,63.3,56.6,96,80,52,29.95,29.76,14,6,23,0.01
2013-2-8,80.5,68.3,55.6,65.6,60.9,54.2,95,79,48,29.97,29.77,9,4,16,0.00
2013-2-9,77.2,62.5,51.1,59.2,54.3,50.0,96,77,47,30.08,29.95,7,3,13,0.02
2013-2-10,80.9,67.8,58.2,64.5,59.5,54.8,92,76,52,30.15,30.02,11,5,17,0.00
2013-2-11,83.6,68.8,56.6,67.0,62.2,55.4,96,81,54,30.09,29.95,10,3,16,0.00
2013-2-12,85.0,71.2,59.5,71.3,65.5,58.4,97,84,54,29.99,29.82,10,4,16,0.00
2013-2-13,85.7,72.7,61.3,72.9,67.8,58.0,96,86,63,29.88,29.73,15,7,24,0.04
2013-2-14,62.5,62.0,61.6,59.7,58.7,57.2,91,89,85,29.88,29.81,4,1,8,0.00
2013-2-16,68.8,58.5,50.3,52.0,45.3,32.4,93,62,49,30.03,29.83,12,6,20,0.00
2013-2-17,55.3,44.7,34.6,32.8,24.6,17.5,83,47,23,30.24,30.03,12,4,20,0.00
2013-2-18,68.6,51.1,32.4,49.8,40.0,28.8,91,68,43,30.25,30.10,10,4,19,0.00
2013-2-19,78.6,61.4,45.9,60.9,53.1,44.2,95,77,49,30.11,29.97,10,3,19,0.00
2013-2-20,79.3,64.9,53.0,66.4,59.3,51.6,97,83,61,30.02,29.89,6,2,10,0.00
2013-2-21,83.3,68.1,56.9,68.0,61.6,54.9,94,81,55,30.00,29.86,7,2,14,0.00
2013-2-22,85.9,71.6,58.6,71.3,65.8,57.1,97,84,54,29.96,29.86,10,3,16,0.00
2013-2-23,86.5,74.6,67.5,72.1,69.0,66.0,96,84,57,29.90,29.77,12,5,20,0.00
2013-2-24,82.5,72.7,67.0,72.2,68.8,65.5,96,88,68,29.84,29.75,11,3,17,0.00
2013-2-25,86.6,74.0,65.9,72.0,67.8,64.8,97,83,55,29.80,29.65,11,4,18,0.00
2013-2-26,76.7,70.2,61.8,72.4,67.9,60.5,97,92,83,29.77,29.60,16,5,25,0.33
2013-2-27,75.5,63.5,55.2,61.1,57.4,51.6,97,82,55,29.86,29.75,6,2,12,0.01
2013-2-28,73.8,60.5,48.9,58.1,52.4,47.5,96,77,46,29.90,29.79,9,2,17,0.00
2013-3-1,63.7,54.0,46.0,49.6,44.0,39.5,94,70,49,29.91,29.81,8,3,14,0.00
2013-3-2,58.5,50.0,39.3,43.2,39.2,36.2,93,67,50,29.96,29.87,11,4,20,0.00
2013-3-3,53.2,44.4,36.2,38.9,35.1,30.8,94,71,53,30.06,29.89,10,4,18,0.00
2013-3-4,68.8,49.2,33.0,45.2,34.7,29.6,95,63,27,30.14,30.00,8,2,13,0.00
2013-3-5,62.1,51.1,38.8,59.5,48.1,34.7,95,90,81,30.06,29.92,6,2,11,0.00
2013-3-6,65.8,57.5,43.6,62.8,46.2,34.3,95,69,35,30.03,29.84,12,6,19,0.02
2013-3-7,68.5,51.7,40.0,43.5,37.9,33.0,92,62,33,30.12,30.01,9,3,15,0.00
2013-3-8,76.4,55.8,38.3,47.6,40.7,35.1,95,65,23,30.12,29.99,6,2,12,0.00
2013-3-9,74.7,59.9,42.7,53.5,48.2,41.1,95,69,40,30.11,30.02,6,2,13,0.00
2013-3-10,80.5,66.7,54.6,59.5,56.2,52.3,93,71,46,30.05,29.93,12,5,23,0.00
2013-3-11,79.3,66.7,53.5,64.3,58.9,51.8,96,77,55,29.99,29.79,14,4,21,0.00
2013-3-12,68.5,63.9,53.6,67.3,60.9,51.6,97,90,78,29.93,29.75,12,5,22,0.37
2013-3-13,56.5,54.6,49.7,51.6,45.8,43.4,95,73,64,30.04,29.92,9,7,15,0.00
2013-3-14,69.0,57.0,45.9,44.5,36.7,29.1,82,50,24,30.16,30.04,10,6,19,0.00
2013-3-15,74.5,54.2,36.7,47.2,40.0,32.5,95,65,31,30.18,30.03,8,2,16,0.00
2013-3-16,80.0,58.9,39.6,55.4,47.3,37.9,95,71,35,30.08,29.94,8,2,14,0.00
2013-3-17,79.3,62.5,45.2,61.1,54.6,44.1,97,78,50,30.03,29.88,8,2,14,0.00
2013-3-18,77.6,67.9,58.7,68.4,63.1,56.4,94,85,69,29.93,29.74,17,4,25,0.00
2013-3-19,87.0,71.7,61.1,68.7,64.2,60.0,97,80,51,29.90,29.77,5,2,11,0.00
2013-3-20,74.8,67.1,58.8,68.2,62.5,57.3,96,86,63,29.86,29.69,7,2,16,0.03
2013-3-21,71.3,58.8,43.4,58.6,42.6,23.8,96,61,19,29.88,29.76,9,4,16,0.02
2013-3-22,79.0,59.0,39.1,67.6,52.0,36.9,97,80,43,29.91,29.78,11,2,17,1.39
2013-3-23,86.3,72.9,62.9,76.3,68.5,61.9,98,87,65,29.87,29.67,13,5,21,0.00
2013-3-24,81.5,74.5,69.0,74.5,71.2,66.9,95,90,78,29.72,29.52,18,7,28,0.00
2013-3-25,69.3,62.7,50.8,66.9,48.6,32.6,95,64,30,29.93,29.62,10,5,22,0.00
2013-3-26,57.7,51.3,43.9,46.2,36.1,28.2,86,57,40,30.14,29.93,12,6,21,0.00
2013-3-27,62.6,48.3,33.8,38.9,34.7,27.8,91,63,30,30.22,30.11,8,3,15,0.00
2013-3-28,72.6,53.3,34.5,43.2,36.2,31.4,96,60,24,30.20,30.07,7,2,11,0.00
2013-3-29,75.9,58.3,41.0,50.5,41.3,36.7,94,60,26,30.22,30.08,7,2,16,0.00
2013-3-30,79.8,62.1,44.6,57.6,49.7,42.3,94,67,40,30.15,30.01,8,2,15,0.00
2013-3-31,83.9,66.6,51.0,61.7,56.3,48.8,95,73,39,30.06,29.89,10,3,27,0.00
2013-4-1,82.9,70.8,59.1,68.6,63.8,57.6,96,80,58,29.92,29.83,9,3,19,0.00
2013-4-2,86.3,71.5,56.9,66.3,62.1,56.1,97,76,44,29.98,29.88,6,1,10,0.00
2013-4-3,85.8,72.6,62.1,70.5,65.1,58.8,95,79,54,29.97,29.82,13,4,19,0.06
2013-4-4,72.5,68.2,65.8,68.6,66.3,64.0,96,93,83,29.94,29.75,12,5,18,0.51
2013-4-5,75.0,66.7,61.3,68.2,62.3,57.4,97,87,59,29.87,29.71,8,4,16,0.24
2013-4-6,79.5,65.8,55.5,62.1,56.9,52.6,93,75,48,30.00,29.87,8,4,17,0.00
2013-4-7,82.6,68.7,58.0,65.1,60.2,56.6,96,77,47,30.04,29.93,7,3,12,0.00
2013-4-9,83.6,77.7,68.1,69.5,66.1,61.1,80,68,59,30.04,29.95,9,5,15,0.00
2013-4-10,89.9,74.4,58.6,71.7,64.9,56.9,96,75,47,30.00,29.83,14,3,21,0.23
2013-4-11,90.3,77.5,69.5,75.2,71.8,68.3,96,84,55,29.88,29.70,13,6,19,0.09
2013-4-12,83.1,76.5,72.7,75.9,72.7,70.2,95,88,75,29.80,29.66,17,7,25,0.00
2013-4-13,87.2,75.9,68.0,72.9,68.9,63.8,96,80,55,29.86,29.76,4,2,11,0.00
2013-4-14,90.8,80.5,66.3,76.3,71.6,62.8,91,75,60,29.89,29.72,11,5,25,0.00
2013-4-15,90.4,77.1,64.8,73.4,68.0,62.4,94,76,52,29.95,29.82,8,3,13,0.08
2013-4-16,90.8,77.9,67.6,75.7,70.5,66.4,96,80,52,30.02,29.91,7,3,14,0.01
2013-4-17,87.5,75.1,63.0,70.3,66.2,61.6,96,76,49,30.02,29.90,8,3,14,0.00
2013-4-18,91.8,76.6,64.4,73.1,68.4,62.9,96,78,49,29.93,29.81,10,2,16,0.48
2013-4-19,90.2,78.1,69.9,76.6,71.8,67.2,97,82,56,29.90,29.79,15,5,27,0.33
2013-4-20,74.8,68.6,60.6,70.7,64.6,57.6,96,87,75,30.03,29.84,8,5,14,0.00
2013-4-21,82.3,69.1,59.3,73.3,65.3,57.3,97,88,71,30.03,29.89,7,4,13,0.48
2013-4-22,81.0,70.5,66.0,71.4,67.1,63.0,97,90,69,29.97,29.85,10,4,17,0.09
2013-4-23,84.0,72.5,64.7,68.6,64.1,61.3,93,77,53,29.99,29.90,9,5,16,0.00
2013-4-24,87.0,72.5,57.4,66.8,62.2,56.1,96,73,42,30.03,29.94,8,2,15,0.00
2013-4-25,88.5,74.7,60.6,69.7,64.6,59.5,96,73,44,30.09,29.98,5,2,11,0.00
2013-4-26,88.2,75.4,60.7,70.1,64.9,59.3,96,72,49,30.12,30.02,6,2,11,0.00
2013-4-27,85.3,74.3,64.0,70.4,66.4,62.7,96,78,54,30.11,29.96,8,3,13,0.00
2013-4-28,89.0,75.8,62.8,68.2,64.5,61.1,95,71,43,30.01,29.84,10,4,19,0.00
2013-4-29,88.2,75.8,65.4,70.2,66.8,62.8,94,75,49,29.91,29.78,9,3,20,0.00
2013-4-30,90.3,73.7,65.0,74.5,68.7,64.1,97,86,49,29.90,29.77,11,2,17,2.73
2013-5-1,74.0,69.5,65.8,73.1,68.7,64.9,98,97,94,29.89,29.81,6,2,13,0.68
2013-5-2,77.9,70.3,63.5,73.0,68.1,62.9,98,93,84,29.85,29.69,8,2,12,0.23
2013-5-3,83.3,71.5,65.6,74.5,68.5,64.7,97,91,64,29.72,29.58,8,2,14,1.01
2013-5-4,81.4,72.8,67.1,71.4,67.9,65.5,96,85,67,29.68,29.55,7,3,15,0.00
2013-5-5,75.9,68.4,61.0,66.4,57.8,49.3,95,71,44,29.83,29.66,11,4,19,0.00
2013-5-6,76.9,67.2,57.0,62.1,57.9,53.3,95,74,45,29.90,29.78,10,3,17,0.00
2013-5-7,78.5,65.9,52.5,63.9,58.1,51.6,97,78,53,29.94,29.86,9,3,18,0.00
2013-5-8,81.6,68.7,56.1,65.1,60.4,55.0,97,77,53,30.02,29.92,8,2,15,0.00
2013-5-9,88.1,71.9,56.1,67.2,62.0,55.0,96,74,42,30.04,29.95,5,1,9,0.00
2013-5-10,91.8,76.6,62.4,74.7,67.6,59.6,96,76,44,30.03,29.87,11,3,16,0.00
2013-5-11,89.8,77.0,67.6,77.9,71.0,65.9,96,83,58,29.94,29.86,8,3,15,0.01
2013-5-12,88.3,76.4,66.8,76.4,70.0,65.2,97,82,59,29.93,29.81,7,2,14,0.00
2013-5-13,83.8,71.8,59.6,67.8,61.4,49.1,97,73,39,30.02,29.89,8,2,13,0.00
2013-5-14,84.3,69.1,52.0,59.5,53.3,47.8,91,62,31,30.09,29.99,6,2,13,0.00
2013-5-15,86.9,71.5,55.3,64.0,59.1,53.9,96,69,40,30.10,29.96,6,2,13,0.00
2013-5-16,88.0,81.8,72.3,65.2,63.0,59.5,75,54,40,30.00,29.88,6,3,11,0.00
2013-5-17,90.2,77.2,61.9,69.4,64.8,60.4,95,69,39,29.98,29.90,7,2,13,0.00
2013-5-18,93.8,79.6,66.2,74.7,68.6,64.5,96,72,40,29.99,29.87,5,2,14,0.00
2013-5-19,92.1,79.0,68.3,75.3,69.9,65.3,97,77,45,29.97,29.84,7,2,13,0.38
2013-5-20,92.7,76.1,67.5,76.1,70.7,65.3,96,85,51,29.96,29.83,15,2,22,0.42
2013-5-21,86.1,72.9,65.7,75.6,69.4,64.6,97,90,65,29.92,29.82,8,2,16,0.42
2013-5-22,89.3,75.0,67.1,76.6,70.9,66.2,97,88,56,29.85,29.75,9,1,13,1.63
2013-5-23,91.2,77.7,67.6,77.9,71.8,66.7,97,84,56,29.89,29.80,5,1,10,0.02
2013-5-24,92.7,79.0,67.4,76.5,69.0,62.1,97,75,37,29.96,29.85,7,2,13,0.00
2013-5-25,89.0,78.2,69.1,71.8,67.2,63.5,92,71,46,30.06,29.94,8,4,14,0.00
2013-5-26,86.0,74.0,59.3,65.3,61.6,54.6,95,68,36,30.10,29.99,6,2,11,0.00
2013-5-27,87.8,74.7,61.2,68.6,64.7,59.5,95,73,49,30.06,29.94,8,3,15,0.00
2013-5-28,88.8,75.5,68.1,77.6,70.8,66.1,95,86,62,30.02,29.92,15,4,24,0.16
2013-5-29,84.2,76.2,70.7,75.5,72.0,69.1,96,87,71,30.00,29.92,13,4,21,0.06
2013-5-30,85.8,77.7,71.9,75.4,72.2,69.7,96,84,66,29.98,29.89,15,5,25,0.00
2013-5-31,87.7,78.7,71.9,76.3,72.0,68.8,90,80,68,29.97,29.88,11,5,19,0.02
2013-6-1,89.8,77.9,72.5,78.2,73.8,70.4,96,88,67,29.94,29.81,11,4,17,1.30
2013-6-2,89.7,77.9,71.1,79.6,74.3,70.2,97,89,64,29.88,29.76,14,2,23,1.34
2013-6-3,87.3,76.4,72.0,78.6,74.0,71.0,97,93,73,29.89,29.78,12,2,22,0.49
2013-6-4,74.9,73.6,72.7,73.7,72.2,70.9,96,96,93,29.90,29.82,3,1,6,0.15
2013-6-5,86.0,77.0,72.0,79.0,73.7,70.8,96,90,72,29.90,29.78,9,3,16,0.08
2013-6-6,78.0,74.9,72.2,75.7,73.1,71.3,98,94,87,29.78,29.54,21,9,33,2.26
2013-6-7,89.0,78.1,71.0,78.3,73.7,70.2,97,87,64,29.84,29.66,7,3,13,0.04
2013-6-8,90.2,75.8,71.5,80.2,73.3,70.3,97,92,67,29.98,29.84,10,2,16,2.22
2013-6-9,91.0,78.1,71.1,81.5,74.9,70.2,98,90,67,29.98,29.87,9,3,17,0.23
2013-6-10,93.8,80.1,72.8,80.3,75.0,71.7,97,86,58,29.97,29.86,8,2,15,0.05
2013-6-11,91.2,78.6,72.9,80.1,74.8,70.6,97,89,67,29.97,29.88,9,2,16,0.76
2013-6-12,95.0,81.0,70.4,79.7,74.4,69.5,97,82,54,29.97,29.88,10,1,16,0.00
2013-6-13,92.7,81.5,70.8,79.8,74.2,69.5,96,80,57,29.93,29.78,6,2,11,0.02
2013-6-14,89.2,81.2,74.0,77.7,74.5,71.3,96,81,59,29.84,29.74,6,2,14,0.00
2013-6-15,91.8,79.4,73.7,79.8,75.5,72.5,97,88,62,29.94,29.79,8,1,14,0.16
2013-6-16,95.0,82.1,75.2,80.3,76.0,73.4,96,83,58,29.96,29.86,8,2,15,0.00
2013-6-17,95.3,83.0,74.2,81.1,76.0,72.3,97,81,54,29.96,29.85,6,1,15,0.14
2013-6-18,94.1,82.8,73.0,79.8,75.2,71.5,96,79,57,29.95,29.84,11,2,18,0.00
2013-6-19,93.8,81.1,73.7,78.9,75.5,72.2,96,84,59,29.92,29.85,9,2,19,0.02
2013-6-20,93.0,79.8,71.8,78.2,73.3,68.4,96,82,52,29.97,29.89,12,2,20,0.19
2013-6-21,91.8,77.2,69.9,78.5,73.1,69.0,97,88,61,29.99,29.92,9,2,16,0.12
2013-6-22,93.1,79.3,71.2,78.2,73.2,70.1,97,83,53,30.00,29.90,8,2,15,0.07
2013-6-23,93.2,78.5,71.0,78.4,74.0,69.8,97,87,56,30.02,29.94,13,2,20,0.11
2013-6-24,93.5,81.8,72.2,77.9,74.4,71.0,97,80,51,30.06,29.93,12,2,18,0.04
2013-6-25,92.8,82.8,72.7,78.1,74.2,71.4,96,77,54,30.03,29.89,5,2,10,0.00
2013-6-26,94.0,79.7,71.9,78.1,74.2,70.3,96,85,55,29.98,29.88,13,2,19,1.21
2013-6-27,92.7,79.9,69.9,79.2,74.1,69.0,97,84,56,29.95,29.82,5,1,10,0.01
2013-6-28,91.0,80.0,72.9,80.3,75.4,71.5,96,87,65,29.87,29.73,8,3,15,0.13
2013-6-29,88.8,79.2,75.0,79.5,75.7,73.3,96,89,71,29.76,29.68,10,4,21,0.04
2013-6-30,88.3,77.3,73.9,80.2,74.6,72.4,96,92,72,29.77,29.69,11,5,17,0.36
2013-7-1,80.7,75.1,72.4,77.5,73.3,71.2,96,94,87,29.89,29.74,10,6,18,0.28
2013-7-2,87.7,76.0,72.4,82.0,73.8,71.2,97,93,75,29.98,29.85,21,4,34,0.30
2013-7-3,89.2,76.7,72.2,80.2,74.2,70.7,97,92,72,30.01,29.92,16,4,29,0.31
2013-7-4,90.0,77.0,71.2,81.1,73.7,69.8,97,90,62,30.03,29.94,19,4,32,0.07
2013-7-5,90.8,77.7,71.3,80.5,74.6,70.1,97,91,66,30.03,29.93,16,4,26,0.22
2013-7-6,92.0,81.2,73.3,79.2,75.0,72.3,97,83,58,30.00,29.90,10,4,17,0.01
2013-7-7,91.5,81.9,73.8,79.0,75.0,72.3,95,81,58,30.01,29.90,11,3,16,0.00
2013-7-8,93.3,82.6,73.7,78.7,74.9,72.3,96,79,56,30.04,29.94,11,3,19,0.00
2013-7-9,92.0,81.1,70.9,77.4,73.9,69.7,96,80,53,30.05,29.93,13,2,18,0.00
2013-7-10,93.0,80.3,71.1,76.9,73.5,69.8,97,81,55,29.97,29.83,12,2,18,0.00
2013-7-11,90.0,78.8,73.2,78.5,74.1,71.7,96,86,61,29.92,29.80,10,3,16,0.03
2013-7-12,88.0,77.0,71.2,78.6,73.9,70.1,97,91,70,29.84,29.77,8,2,16,0.11
2013-7-13,89.6,76.9,70.3,78.3,73.6,69.4,97,90,65,29.87,29.79,11,2,21,0.05
2013-7-14,91.7,76.2,71.2,79.4,73.4,70.0,97,92,65,29.97,29.84,11,3,18,1.01
2013-7-15,90.7,78.5,71.0,78.0,73.7,70.0,97,86,60,29.99,29.89,8,2,13,0.01
2013-7-16,89.3,76.7,72.0,77.2,73.3,70.8,97,90,61,30.03,29.96,18,3,28,0.42
2013-7-17,89.7,77.6,72.4,79.2,73.8,70.7,97,89,66,30.04,29.94,12,3,20,0.05
2013-7-18,88.0,76.7,71.4,77.1,73.0,70.1,97,89,65,30.00,29.92,13,2,20,0.05
2013-7-19,92.2,76.7,70.9,79.7,73.3,70.0,97,90,61,30.01,29.91,9,3,17,0.54
2013-7-20,89.6,76.7,71.4,81.2,74.2,70.2,97,92,72,29.99,29.92,6,2,11,0.00
2013-7-22,85.8,80.0,75.7,78.0,76.0,74.2,96,88,75,29.99,29.94,4,1,6,0.00
2013-7-23,90.8,78.0,74.5,79.6,75.0,72.2,97,91,61,29.98,29.85,9,2,15,0.14
2013-7-24,89.3,80.2,74.0,80.8,76.3,73.0,97,89,69,29.89,29.77,6,2,15,0.27
2013-7-25,88.1,79.3,72.0,81.4,76.0,70.8,98,90,68,29.87,29.76,12,2,27,1.92
2013-7-26,90.9,80.0,73.6,81.1,76.2,72.7,98,89,67,29.90,29.82,5,1,13,0.01
2013-7-27,91.7,82.0,73.7,80.1,75.7,72.8,98,83,58,29.88,29.77,5,2,10,0.00
2013-7-28,93.3,77.9,72.6,80.2,74.6,71.7,97,90,58,29.95,29.82,9,1,15,0.29
2013-7-29,95.9,81.1,71.0,79.5,74.6,70.4,98,82,51,30.03,29.90,16,2,23,0.00
2013-7-30,95.5,82.5,72.6,80.4,75.4,71.5,97,81,52,30.05,29.94,13,2,19,0.00
2013-7-31,96.3,82.3,73.9,79.8,75.3,72.7,97,81,50,30.02,29.87,15,2,20,0.00
2013-8-1,96.4,81.6,72.7,78.3,74.2,71.4,97,80,46,29.94,29.82,13,3,20,0.00
2013-8-2,92.7,79.0,71.9,80.5,74.4,71.0,97,87,59,29.93,29.82,9,2,16,0.69
2013-8-3,92.3,79.2,72.7,82.4,75.9,70.6,97,90,64,29.98,29.89,11,2,15,2.16
2013-8-4,89.2,79.3,74.0,81.3,76.6,73.0,97,92,75,29.98,29.88,6,2,11,0.27
2013-8-5,91.4,82.5,74.7,83.5,78.0,73.8,97,87,71,29.91,29.80,7,2,11,0.01
2013-8-6,95.3,81.4,73.9,82.2,76.5,73.0,97,86,58,29.86,29.76,8,1,20,0.78
2013-8-7,95.2,81.9,75.5,82.0,76.8,74.0,97,86,58,29.85,29.76,12,2,20,0.01
2013-8-8,92.8,80.4,73.7,81.2,76.4,70.7,97,88,65,29.91,29.81,19,4,26,0.46
2013-8-9,91.3,79.3,73.3,80.8,75.4,72.3,98,89,66,29.94,29.84,13,2,20,0.15
2013-8-10,92.3,81.7,72.4,81.9,76.1,71.5,97,84,59,30.00,29.91,12,3,16,0.03
2013-8-11,95.4,83.8,73.6,80.4,76.6,72.7,97,80,54,30.03,29.92,9,2,13,0.00
2013-8-12,94.0,82.7,73.6,81.6,75.7,72.3,97,81,56,30.01,29.88,8,2,12,0.00
2013-8-13,97.5,84.1,73.4,79.1,75.8,72.2,97,78,46,29.93,29.80,6,2,10,0.00
2013-8-14,95.2,81.1,74.4,81.2,76.2,71.9,97,86,60,29.91,29.80,11,2,17,0.23
2013-8-15,93.4,81.3,71.1,81.3,75.8,69.9,97,84,60,29.92,29.81,10,4,18,0.00
2013-8-16,94.5,83.1,76.5,80.1,76.7,73.4,96,83,55,29.94,29.83,9,3,16,0.00
2013-8-17,94.9,81.1,74.0,80.8,76.4,72.8,97,87,61,29.96,29.85,9,2,15,0.06
2013-8-18,92.5,79.4,74.3,82.7,76.0,72.9,97,90,65,29.99,29.88,14,3,20,1.84
2013-8-19,92.5,80.4,73.3,82.3,76.1,72.4,98,88,62,29.96,29.83,8,3,13,0.09
2013-8-20,96.3,81.3,72.4,80.7,75.4,69.0,97,84,52,29.94,29.85,14,2,21,0.30
2013-8-24,93.1,79.3,74.0,80.5,75.0,72.8,97,88,65,30.00,29.89,11,2,22,0.95
2013-8-25,88.8,79.0,74.0,79.5,75.4,73.1,97,89,68,30.03,29.94,7,2,11,0.00
2013-8-26,88.2,78.6,73.7,79.0,74.9,72.7,97,89,68,30.02,29.88,8,3,14,0.72
2013-8-27,89.8,79.8,72.2,77.7,73.7,70.9,98,83,57,29.94,29.85,7,3,13,0.01
2013-8-28,91.3,79.1,70.5,77.1,72.4,68.9,96,82,52,29.94,29.85,16,2,21,0.00
2013-8-29,93.7,80.2,71.5,77.1,73.6,70.3,97,82,53,29.92,29.81,5,1,10,0.00
2013-8-30,90.2,80.0,73.0,80.3,75.6,71.7,97,87,67,29.87,29.77,10,2,16,0.00
2013-8-31,91.3,79.6,72.0,79.5,75.6,70.5,97,88,63,29.86,29.77,20,2,31,0.47
2013-9-1,76.3,73.0,71.1,72.4,71.2,69.9,97,94,88,29.85,29.80,3,1,5,0.00
2013-9-7,88.3,82.1,73.4,80.1,75.2,71.2,98,80,64,29.91,29.79,7,2,15,0.02
2013-9-8,91.2,79.5,70.8,78.6,73.5,69.7,97,83,59,29.86,29.73,7,2,13,0.00
2013-9-9,92.0,80.8,71.8,77.6,73.5,69.6,97,80,57,29.91,29.81,6,2,13,0.00
2013-9-10,90.0,80.6,73.1,76.9,73.2,68.3,96,80,53,29.96,29.86,8,3,16,0.00
2013-9-11,91.5,80.9,73.5,76.7,73.8,70.3,96,81,57,29.95,29.86,12,4,20,0.00
2013-9-13,90.9,79.0,74.5,76.6,74.2,72.7,95,86,63,29.74,29.69,4,1,8,0.01
2013-9-14,94.5,80.6,71.7,79.2,74.7,70.7,97,84,56,29.86,29.72,9,1,15,0.04
2013-9-15,92.2,80.9,71.4,80.2,74.7,0.0,97,83,64,29.95,29.86,12,4,20,0.09
2013-9-16,92.5,77.6,71.3,79.8,74.0,70.4,98,89,61,29.95,29.86,18,3,25,0.06
2013-9-17,90.3,77.5,71.5,78.6,73.7,70.6,98,89,65,29.93,29.82,14,3,20,0.14
2013-9-18,86.7,78.0,72.6,78.3,74.2,71.4,97,89,72,29.92,29.83,12,3,22,0.17
2013-9-19,88.3,78.3,71.8,80.8,74.4,70.3,96,88,70,29.93,29.84,8,3,14,0.47
2013-9-20,88.3,78.3,70.0,78.0,71.9,68.9,97,82,58,29.91,29.77,6,2,12,0.00
2013-9-21,91.7,79.0,68.4,74.9,71.2,67.2,96,79,50,29.83,29.65,6,2,14,0.00
2013-9-22,91.5,79.2,73.0,79.2,75.2,71.5,96,88,65,29.74,29.64,14,3,23,1.01
2013-9-23,83.7,76.5,73.3,79.7,75.2,72.4,97,96,86,29.84,29.71,9,3,14,1.35
2013-9-24,80.2,76.0,74.0,76.7,74.5,73.1,98,95,87,29.84,29.73,8,4,15,0.37
2013-9-25,80.6,74.7,71.0,76.1,73.1,69.6,98,95,84,29.78,29.67,11,3,19,0.56
2013-9-26,87.0,79.1,73.9,81.7,74.8,68.2,98,88,57,29.75,29.67,8,2,16,0.06
2013-9-27,83.3,75.1,69.2,75.9,71.4,68.3,97,89,74,29.84,29.74,12,4,19,0.00
2013-9-28,86.6,75.4,70.1,76.9,72.4,69.2,97,91,70,29.88,29.80,9,3,15,0.15
2013-9-29,86.7,76.8,68.3,75.3,70.7,67.2,97,83,59,29.88,29.77,5,2,11,0.00
2013-9-30,88.4,77.4,68.6,77.2,72.2,67.5,98,85,61,29.89,29.79,5,1,14,0.00
2013-10-1,75.3,72.6,70.7,72.5,70.7,69.5,97,94,90,29.89,29.85,3,1,6,0.00
2013-10-2,79.6,77.0,74.9,72.8,72.0,71.3,90,85,79,29.93,29.89,3,1,8,0.00
2013-10-3,89.3,78.4,70.0,75.8,72.4,68.8,96,83,59,29.95,29.85,8,2,14,0.00
2013-10-4,90.0,78.6,71.1,78.1,73.0,70.0,97,84,58,29.97,29.87,5,1,10,0.00
2013-10-5,90.8,78.1,70.0,80.2,72.6,68.7,96,84,60,29.94,29.82,6,2,11,0.05
2013-10-6,90.8,78.1,70.5,77.9,73.2,69.3,97,86,63,29.87,29.73,7,1,11,0.00
2013-10-7,87.0,77.4,71.9,80.2,74.8,70.4,98,92,76,29.75,29.62,11,5,20,0.23
2013-10-8,88.5,78.9,73.3,78.6,75.1,71.0,97,89,71,29.83,29.67,10,3,16,0.06
2013-10-9,80.8,73.0,66.3,73.2,69.5,64.5,95,89,74,29.92,29.81,6,4,13,0.00
2013-10-10,67.3,66.0,65.7,65.8,64.6,64.2,96,95,95,29.92,29.91,3,1,6,0.01
2013-10-11,84.2,71.0,62.4,71.9,66.8,61.5,97,88,62,29.93,29.87,4,1,7,0.00
2013-10-14,74.5,71.1,68.7,68.6,67.3,66.2,92,88,82,29.90,29.86,4,3,7,0.00
2013-10-15,78.2,70.3,65.1,73.0,68.2,64.0,98,93,81,29.89,29.78,5,3,12,0.00
2013-10-16,86.1,75.5,69.4,76.2,70.5,67.2,96,85,62,29.85,29.77,4,1,7,0.00
2013-10-17,88.6,75.9,66.1,77.2,70.6,65.2,97,85,59,29.86,29.77,4,1,8,0.00
2013-10-18,89.2,77.5,68.1,77.9,72.3,67.2,97,85,62,29.87,29.76,6,1,12,0.00
2013-10-19,89.5,78.1,70.4,78.5,73.7,69.2,97,87,65,29.84,29.74,8,2,12,0.20
2013-10-20,89.0,78.7,71.7,79.7,74.8,70.7,97,89,68,29.85,29.75,8,1,13,0.00
2013-10-21,88.4,78.0,70.7,79.1,73.6,69.5,97,87,62,29.88,29.78,4,1,7,0.00
2013-10-22,87.3,76.4,69.9,80.1,73.5,69.0,98,91,74,29.83,29.70,9,2,16,0.29
2013-10-23,80.4,72.4,65.9,71.9,65.5,53.3,97,81,43,29.90,29.69,9,3,18,0.01
2013-10-24,66.2,60.4,59.5,59.4,53.4,52.5,79,78,71,29.94,29.89,5,4,10,0.00
2013-10-25,59.5,59.5,59.5,52.6,52.6,52.6,78,78,78,29.93,29.93,4,4,7,0.00
2013-10-26,59.5,59.5,59.5,52.6,52.6,52.6,78,78,78,29.93,29.93,4,4,7,0.00
2013-10-27,59.5,59.5,59.5,52.6,52.6,52.6,78,78,78,29.93,29.93,4,4,7,0.00
2013-10-28,59.5,59.5,59.5,52.6,52.6,52.6,78,78,78,29.93,29.93,4,4,7,0.00
2013-10-29,59.5,59.5,59.5,52.6,52.6,52.6,78,78,78,29.93,29.93,4,4,7,0.00
2013-10-30,59.5,59.5,59.5,52.6,52.6,52.6,78,78,78,29.93,29.93,4,4,7,0.00
2013-10-31,59.5,59.5,59.5,52.6,52.6,52.6,78,78,78,29.93,29.93,4,4,7,0.00
2013-11-1,59.5,59.5,59.5,52.6,52.6,52.6,78,78,78,29.93,29.93,4,4,7,0.00
2013-11-2,59.5,59.5,59.5,52.6,52.6,52.6,78,78,78,29.93,29.93,4,4,7,0.00
2013-11-3,59.5,59.5,59.5,52.6,52.6,52.6,78,78,78,29.93,29.93,4,4,7,0.00
2013-11-4,59.5,59.5,59.5,52.6,52.6,52.6,78,78,78,29.93,29.93,4,4,7,0.00
2013-11-5,59.5,59.5,59.5,52.6,52.6,52.6,78,78,78,29.93,29.93,4,4,7,0.00
2013-11-9,71.9,68.6,65.6,64.9,63.4,61.9,88,84,78,30.03,0.00,4,2,8,0.60
2013-11-10,82.8,70.7,62.4,71.6,65.4,60.9,95,84,61,30.05,29.95,6,2,12,0.00
2013-11-11,82.3,70.9,63.5,71.5,66.2,62.3,96,86,64,30.05,29.94,6,2,12,0.00
2013-11-12,79.8,70.0,62.4,71.0,66.3,61.5,97,88,69,30.00,29.88,6,1,10,0.02
2013-11-13,67.8,60.1,58.9,62.1,53.3,51.9,84,78,73,30.03,29.95,10,7,18,0.00
2013-11-14,76.9,63.4,48.3,62.0,55.4,46.8,95,76,55,30.19,30.03,10,5,23,0.00
2013-11-15,75.6,67.0,59.0,67.1,62.8,56.7,93,87,70,30.07,29.94,5,2,10,0.01
2013-11-16,73.5,69.8,68.1,71.3,67.9,65.1,96,94,90,30.01,29.91,8,3,12,0.15
2013-11-20,71.0,70.7,70.4,69.2,68.7,68.2,95,93,92,29.98,29.96,5,4,13,0.00
2013-11-21,83.8,73.8,70.1,74.5,70.5,68.7,96,90,71,30.06,29.96,9,4,18,0.00
2013-11-22,82.0,72.8,66.0,73.6,68.9,63.8,96,88,70,30.07,29.98,7,2,13,0.00
2013-11-23,83.7,71.1,62.0,71.6,65.7,60.8,97,84,58,30.00,29.88,5,2,10,0.00
2013-11-24,70.8,64.1,58.4,64.1,59.8,53.6,96,86,76,30.11,29.91,11,6,18,0.00
2013-11-25,75.0,66.8,57.4,63.6,59.7,53.8,90,78,63,30.12,29.94,9,4,18,0.00
2013-11-26,83.2,73.5,66.6,74.5,70.1,63.6,97,90,73,29.94,29.65,16,8,25,0.28
2013-11-27,71.4,62.1,42.6,70.2,57.7,38.9,96,86,71,30.10,29.61,12,6,24,0.08
2013-11-28,64.3,49.6,35.8,53.2,44.0,32.4,92,82,64,30.23,30.10,6,4,12,0.00
2013-11-29,72.3,59.2,49.7,60.6,54.0,47.8,94,84,64,30.24,30.14,9,5,15,0.00
2013-11-30,75.6,63.0,52.4,66.1,58.7,50.8,97,87,69,30.19,30.05,10,5,19,0.00
2013-12-1,74.8,64.5,60.4,68.4,61.9,59.0,97,92,76,30.07,29.86,6,3,12,0.00
2013-12-2,70.3,63.6,58.9,62.4,59.2,56.8,97,86,70,29.86,29.73,5,1,8,0.00
2013-12-3,79.3,67.2,55.5,66.5,62.1,54.4,97,85,62,29.88,29.77,8,2,11,0.00
2013-12-4,81.3,69.7,60.7,71.6,65.5,59.8,97,88,67,29.97,29.85,6,1,10,0.00
2013-12-5,83.2,70.8,60.4,71.9,66.0,59.5,98,86,63,30.06,29.95,9,2,15,0.01
2013-12-6,70.4,70.4,70.4,68.0,68.0,68.0,92,92,92,30.00,30.00,1,1,3,0.01
2013-12-7,70.4,70.4,70.4,68.0,68.0,68.0,92,92,92,30.00,30.00,1,1,3,0.01
2013-12-8,70.4,70.4,70.4,68.0,68.0,68.0,92,92,92,30.00,30.00,1,1,3,0.01
2013-12-9,70.4,70.4,70.4,68.0,68.0,68.0,92,92,92,30.00,30.00,1,1,3,0.01
2013-12-10,70.4,70.4,70.4,68.0,68.0,68.0,92,92,92,30.00,30.00,1,1,3,0.01
2013-12-11,70.4,70.4,70.4,68.0,68.0,68.0,92,92,92,30.00,30.00,1,1,3,0.01
2013-12-12,71.0,63.4,50.5,68.0,53.1,30.8,97,72,32,30.19,30.00,9,4,16,0.01
2013-12-13,75.5,60.1,46.2,60.2,52.7,41.3,93,78,56,30.16,29.99,7,3,14,0.00
2013-12-14,83.5,71.9,61.4,72.3,66.8,58.8,94,85,67,30.00,29.82,12,5,19,0.00
2013-12-15,72.8,67.6,56.6,71.4,64.2,54.8,96,89,74,30.01,29.77,10,4,16,0.24
2013-12-16,65.8,55.1,44.7,55.1,48.4,41.6,95,79,52,30.12,30.00,6,3,11,0.00
2013-12-17,72.0,54.5,42.7,57.6,48.6,40.6,95,82,55,30.14,30.03,6,2,12,0.00
2013-12-18,70.6,53.9,40.3,51.3,45.3,39.3,96,76,43,30.18,30.09,8,2,12,0.00
2013-12-19,76.7,58.0,40.4,61.6,51.1,38.9,96,80,49,30.17,30.05,7,2,11,0.02
2013-12-20,83.0,67.8,52.8,69.7,62.2,51.1,96,83,63,30.08,29.97,10,3,17,0.00
2013-12-21,85.3,72.2,65.1,73.0,67.7,62.8,97,87,65,30.02,29.90,13,5,22,0.00
2013-12-27,70.4,65.5,59.2,66.3,62.8,57.2,94,91,86,30.14,30.03,7,5,15,0.01
2013-12-28,66.5,64.7,64.1,65.6,63.4,62.5,97,96,94,30.10,30.02,6,4,12,0.00
2013-12-29,77.7,67.1,60.7,74.2,65.9,59.8,97,96,89,29.90,29.76,7,3,16,0.73
2013-12-30,63.0,60.5,57.6,60.6,59.0,55.9,97,95,91,30.08,29.88,5,2,11,0.00
2013-12-31,67.3,61.3,56.6,55.9,54.2,51.6,94,78,61,30.18,30.05,7,3,12,0.00
2014-1-1,64.1,60.8,58.1,63.2,58.8,52.7,97,93,76,30.13,29.94,7,4,14,0.12
2014-1-2,81.7,68.9,59.7,74.5,66.6,58.0,98,93,72,29.94,29.70,14,5,23,0.55